createdAt,value
2022-09-16T00:00:51.900Z,100.00
2022-09-16T00:01:48.759Z,87.96
2022-09-16T00:02:45.690Z,100.00
2022-09-16T00:03:43.020Z,100.00
2022-09-16T00:04:40.457Z,100.00
2022-09-16T00:05:49.582Z,89.05
2022-09-16T00:06:46.260Z,100.00
2022-09-16T00:07:42.966Z,98.89
2022-09-16T00:08:40.449Z,100.00
2022-09-16T00:09:38.378Z,96.57
2022-09-16T00:10:35.699Z,100.00
2022-09-16T00:11:34.518Z,81.76
2022-09-16T00:12:31.353Z,93.74
2022-09-16T00:13:28.404Z,83.33
2022-09-16T00:14:25.169Z,100.00
2022-09-16T00:15:21.853Z,93.72
2022-09-16T00:16:24.527Z,100.00
2022-09-16T00:17:21.818Z,92.59
2022-09-16T00:18:20.448Z,100.00
2022-09-16T00:19:17.774Z,100.00
2022-09-16T00:20:14.624Z,97.20
2022-09-16T00:21:11.810Z,97.96
2022-09-16T00:23:22.651Z,100.00
2022-09-16T00:24:19.414Z,100.00
2022-09-16T00:25:16.161Z,97.67
2022-09-16T00:26:12.846Z,98.96
2022-09-16T00:27:10.697Z,100.00
2022-09-16T00:28:08.138Z,100.00
2022-09-16T00:29:05.137Z,94.97
2022-09-16T00:30:01.927Z,94.79
2022-09-16T00:30:59.996Z,100.00
2022-09-16T00:31:56.916Z,88.50
2022-09-16T00:32:53.928Z,100.00
2022-09-16T00:33:50.607Z,93.29
2022-09-16T00:34:47.293Z,100.00
2022-09-16T00:35:44.004Z,91.00
2022-09-16T00:36:40.716Z,99.12
2022-09-16T00:37:37.395Z,92.00
2022-09-16T00:38:34.111Z,95.19
2022-09-16T00:39:30.914Z,89.15
2022-09-16T00:40:27.653Z,99.00
2022-09-16T00:41:30.759Z,100.00
2022-09-16T00:42:27.638Z,97.83
2022-09-16T00:43:24.310Z,89.53
2022-09-16T00:44:51.788Z,100.00
2022-09-16T00:46:00.080Z,100.00
2022-09-16T00:46:57.477Z,100.00
2022-09-16T00:47:59.595Z,97.57
2022-09-16T00:49:01.044Z,84.81
2022-09-16T00:50:06.435Z,91.87
2022-09-16T00:51:09.269Z,99.11
2022-09-16T00:52:07.329Z,95.61
2022-09-16T00:53:09.363Z,97.23
2022-09-16T00:54:10.084Z,99.48
2022-09-16T00:55:11.320Z,85.56
2022-09-16T00:56:13.132Z,81.72
2022-09-16T00:57:13.496Z,84.28
2022-09-16T00:58:23.684Z,94.93
2022-09-16T00:59:29.990Z,100.00
2022-09-16T01:00:27.379Z,93.75
2022-09-16T01:01:24.199Z,77.83
2022-09-16T01:02:23.926Z,93.53
2022-09-16T01:03:21.359Z,94.60
2022-09-16T01:04:25.906Z,91.04
2022-09-16T01:05:26.717Z,81.09
2022-09-16T01:06:26.725Z,90.72
2022-09-16T01:07:33.016Z,90.57
2022-09-16T01:08:29.828Z,83.24
2022-09-16T01:09:29.276Z,90.96
2022-09-16T01:10:26.729Z,80.73
2022-09-16T01:11:24.313Z,88.64
2022-09-16T01:12:21.231Z,83.27
2022-09-16T01:13:18.750Z,99.29
2022-09-16T01:14:35.940Z,84.63
2022-09-16T01:15:53.677Z,88.40
2022-09-16T01:17:05.539Z,82.13
2022-09-16T01:18:21.624Z,85.93
2022-09-16T01:19:46.157Z,89.18
2022-09-16T01:21:01.402Z,71.15
2022-09-16T01:22:15.788Z,89.47
2022-09-16T01:23:27.613Z,73.79
2022-09-16T01:25:12.041Z,89.68
2022-09-16T01:26:47.570Z,87.18
2022-09-16T01:28:22.058Z,83.69
2022-09-16T01:29:27.506Z,94.22
2022-09-16T01:30:45.472Z,91.63
2022-09-16T01:31:49.588Z,75.91
2022-09-16T01:33:19.070Z,71.53
2022-09-16T01:34:41.695Z,72.41
2022-09-16T01:36:07.476Z,80.66
2022-09-16T01:37:15.059Z,88.43
2022-09-16T01:40:08.603Z,87.94
2022-09-16T01:41:11.018Z,90.53
2022-09-16T01:42:16.593Z,88.98
2022-09-16T01:43:39.166Z,78.04
2022-09-16T01:45:11.967Z,86.02
2022-09-16T01:46:29.918Z,91.89
2022-09-16T01:47:41.557Z,77.93
2022-09-16T01:48:59.354Z,78.18
2022-09-16T01:50:17.479Z,100.00
2022-09-16T01:51:45.430Z,85.47
2022-09-16T01:52:56.819Z,89.65
2022-09-16T01:54:18.858Z,84.34
2022-09-16T01:56:14.115Z,75.68
2022-09-16T01:57:41.234Z,82.38
2022-09-16T01:58:56.305Z,79.80
2022-09-16T02:00:06.573Z,86.34
2022-09-16T02:01:10.460Z,77.03
2022-09-16T02:02:18.238Z,82.65
2022-09-16T02:03:23.195Z,85.61
2022-09-16T02:04:38.711Z,88.91
2022-09-16T02:05:48.147Z,92.52
2022-09-16T02:06:49.778Z,86.35
2022-09-16T02:07:54.974Z,86.12
2022-09-16T02:09:09.320Z,85.46
2022-09-16T02:10:26.662Z,87.86
2022-09-16T02:11:25.457Z,83.99
2022-09-16T02:12:29.497Z,92.27
2022-09-16T02:13:40.134Z,89.96
2022-09-16T02:14:43.916Z,94.36
2022-09-16T02:15:47.155Z,78.68
2022-09-16T02:16:54.767Z,92.07
2022-09-16T02:18:05.961Z,78.56
2022-09-16T02:19:10.687Z,91.98
2022-09-16T02:20:17.340Z,92.99
2022-09-16T02:21:16.459Z,72.82
2022-09-16T02:22:18.416Z,81.62
2022-09-16T02:23:20.778Z,96.60
2022-09-16T02:24:21.605Z,94.52
2022-09-16T02:25:20.960Z,73.93
2022-09-16T02:26:24.762Z,85.63
2022-09-16T02:27:23.179Z,91.00
2022-09-16T02:28:42.349Z,94.49
2022-09-16T02:29:50.582Z,95.64
2022-09-16T02:30:53.225Z,91.13
2022-09-16T02:31:56.934Z,88.78
2022-09-16T02:33:02.670Z,86.22
2022-09-16T02:34:19.839Z,74.16
2022-09-16T02:35:20.917Z,89.49
2022-09-16T02:36:22.601Z,86.43
2022-09-16T02:37:42.207Z,80.38
2022-09-16T02:38:44.337Z,83.90
2022-09-16T02:39:48.476Z,83.93
2022-09-16T02:40:52.566Z,93.02
2022-09-16T02:41:49.529Z,87.68
2022-09-16T02:42:46.236Z,81.62
2022-09-16T02:43:43.412Z,88.81
2022-09-16T02:44:41.005Z,82.49
2022-09-16T02:45:51.415Z,84.64
2022-09-16T02:46:54.050Z,80.45
2022-09-16T02:48:26.167Z,68.52
2022-09-16T02:49:31.757Z,71.59
2022-09-16T02:51:02.969Z,95.83
2022-09-16T02:52:24.104Z,82.52
2022-09-16T02:53:56.486Z,76.81
2022-09-16T02:55:01.094Z,100.00
2022-09-16T02:56:06.245Z,82.12
2022-09-16T02:57:04.799Z,100.00
2022-09-16T02:58:01.600Z,99.37
2022-09-16T02:58:58.959Z,95.83
2022-09-16T02:59:57.055Z,85.31
2022-09-16T03:00:55.598Z,75.35
2022-09-16T03:01:52.613Z,75.85
2022-09-16T03:02:49.744Z,89.42
2022-09-16T03:03:46.878Z,93.05
2022-09-16T03:04:43.545Z,76.23
2022-09-16T03:06:12.815Z,96.39
2022-09-16T03:07:12.401Z,100.00
2022-09-16T03:08:09.116Z,98.24
2022-09-16T03:09:10.114Z,92.52
2022-09-16T03:10:10.370Z,80.95
2022-09-16T03:11:30.414Z,77.77
2022-09-16T03:13:04.916Z,83.33
2022-09-16T03:14:19.755Z,79.03
2022-09-16T03:15:45.137Z,78.76
2022-09-16T03:17:06.673Z,87.61
2022-09-16T03:18:13.328Z,100.00
2022-09-16T03:19:48.142Z,88.08
2022-09-16T03:20:53.225Z,94.39
2022-09-16T03:22:15.026Z,94.24
2022-09-16T03:23:20.882Z,100.00
2022-09-16T03:24:54.037Z,99.73
2022-09-16T03:26:12.049Z,100.00
2022-09-16T03:27:20.754Z,100.00
2022-09-16T03:28:31.834Z,90.51
2022-09-16T03:29:39.801Z,99.32
2022-09-16T03:30:51.335Z,100.00
2022-09-16T03:32:06.507Z,100.00
2022-09-16T03:33:14.905Z,99.71
2022-09-16T03:34:17.714Z,97.51
2022-09-16T03:35:28.558Z,89.99
2022-09-16T03:36:33.536Z,91.63
2022-09-16T03:37:34.434Z,98.33
2022-09-16T03:38:36.018Z,100.00
2022-09-16T03:39:34.409Z,100.00
2022-09-16T03:40:34.155Z,88.21
2022-09-16T03:41:34.029Z,98.37
2022-09-16T03:42:31.550Z,100.00
2022-09-16T03:43:28.242Z,92.74
2022-09-16T03:44:34.899Z,97.48
2022-09-16T03:45:31.595Z,99.70
2022-09-16T03:46:29.037Z,100.00
2022-09-16T03:47:25.774Z,100.00
2022-09-16T03:48:22.484Z,100.00
2022-09-16T03:49:19.194Z,100.00
2022-09-16T03:50:18.043Z,100.00
2022-09-16T03:51:15.087Z,100.00
2022-09-16T03:52:12.095Z,100.00
2022-09-16T03:53:09.450Z,93.59
2022-09-16T03:54:06.308Z,100.00
2022-09-16T03:55:03.303Z,95.75
2022-09-16T03:56:00.050Z,100.00
2022-09-16T03:56:57.009Z,100.00
2022-09-16T03:57:54.955Z,90.48
2022-09-16T03:58:52.089Z,100.00
2022-09-16T03:59:48.838Z,100.00
2022-09-16T04:00:50.808Z,100.00
2022-09-16T04:01:47.894Z,95.53
2022-09-16T04:02:44.720Z,95.16
2022-09-16T04:03:42.071Z,96.23
2022-09-16T04:04:38.972Z,98.28
2022-09-16T04:05:35.666Z,92.99
2022-09-16T04:06:32.377Z,96.16
2022-09-16T04:07:29.329Z,91.74
2022-09-16T04:08:25.968Z,94.63
2022-09-16T04:09:22.920Z,88.61
2022-09-16T04:10:19.806Z,97.70
2022-09-16T04:11:17.641Z,86.64
2022-09-16T04:12:14.507Z,91.40
2022-09-16T04:13:11.188Z,77.14
2022-09-16T04:14:08.791Z,87.70
2022-09-16T04:15:06.000Z,81.81
2022-09-16T04:16:04.877Z,80.98
2022-09-16T04:17:02.402Z,93.24
2022-09-16T04:18:00.335Z,99.10
2022-09-16T04:18:57.467Z,84.78
2022-09-16T04:19:54.177Z,86.38
2022-09-16T04:20:55.818Z,94.83
2022-09-16T04:21:52.555Z,80.48
2022-09-16T04:22:49.308Z,82.07
2022-09-16T04:23:46.105Z,100.00
2022-09-16T04:24:42.791Z,76.99
2022-09-16T04:25:41.006Z,82.18
2022-09-16T04:26:37.744Z,80.87
2022-09-16T04:27:34.446Z,85.91
2022-09-16T04:28:33.523Z,89.30
2022-09-16T04:29:30.205Z,85.66
2022-09-16T04:30:26.911Z,84.17
2022-09-16T04:31:23.800Z,94.52
2022-09-16T04:32:21.228Z,77.02
2022-09-16T04:33:19.744Z,96.28
2022-09-16T04:34:16.489Z,84.38
2022-09-16T04:35:13.187Z,98.23
2022-09-16T04:36:15.817Z,99.30
2022-09-16T04:37:12.643Z,97.19
2022-09-16T04:38:09.341Z,94.92
2022-09-16T04:39:06.493Z,78.88
2022-09-16T04:40:05.224Z,93.76
2022-09-16T04:41:05.022Z,100.00
2022-09-16T04:42:01.799Z,98.21
2022-09-16T04:42:58.867Z,90.93
2022-09-16T04:43:58.320Z,78.85
2022-09-16T04:44:55.074Z,87.40
2022-09-16T04:46:11.401Z,86.33
2022-09-16T04:47:08.186Z,83.26
2022-09-16T04:48:04.878Z,84.84
2022-09-16T04:49:01.603Z,91.43
2022-09-16T04:49:58.498Z,100.00
2022-09-16T04:50:55.325Z,100.00
2022-09-16T04:51:52.341Z,98.81
2022-09-16T04:52:49.173Z,84.98
2022-09-16T04:53:46.836Z,100.00
2022-09-16T04:54:43.588Z,90.91
2022-09-16T04:55:40.295Z,84.54
2022-09-16T04:56:36.969Z,87.53
2022-09-16T04:57:33.639Z,89.53
2022-09-16T04:58:30.335Z,91.36
2022-09-16T04:59:27.013Z,91.48
2022-09-16T05:00:23.764Z,92.19
2022-09-16T05:01:27.409Z,94.71
2022-09-16T05:02:24.443Z,95.53
2022-09-16T05:03:21.252Z,95.81
2022-09-16T05:04:18.006Z,95.57
2022-09-16T05:05:17.191Z,96.40
2022-09-16T05:06:20.487Z,96.99
2022-09-16T05:07:17.627Z,97.13
2022-09-16T05:08:14.383Z,97.02
2022-09-16T05:09:12.522Z,97.35
2022-09-16T05:10:09.370Z,97.64
2022-09-16T05:11:09.351Z,97.46
2022-09-16T05:12:06.763Z,99.05
2022-09-16T05:13:03.553Z,98.54
2022-09-16T05:14:01.930Z,99.81
2022-09-16T05:14:58.874Z,100.00
2022-09-16T05:15:55.585Z,98.76
2022-09-16T05:16:52.443Z,99.30
2022-09-16T05:17:51.673Z,100.00
2022-09-16T05:18:50.432Z,100.00
2022-09-16T05:19:47.537Z,100.00
2022-09-16T05:20:44.215Z,100.00
2022-09-16T05:21:41.092Z,98.88
2022-09-16T05:22:39.026Z,98.79
2022-09-16T05:23:36.294Z,96.78
2022-09-16T05:24:38.590Z,92.78
2022-09-16T05:25:35.262Z,89.59
2022-09-16T05:26:35.277Z,87.58
2022-09-16T05:27:32.723Z,86.90
2022-09-16T05:28:29.466Z,87.16
2022-09-16T05:29:26.141Z,89.16
2022-09-16T05:30:26.072Z,93.58
2022-09-16T05:31:29.119Z,94.57
2022-09-16T05:32:26.043Z,95.40
2022-09-16T05:33:22.726Z,98.19
2022-09-16T05:34:23.154Z,98.01
2022-09-16T05:35:19.824Z,98.46
2022-09-16T05:36:17.976Z,99.56
2022-09-16T05:37:14.707Z,98.51
2022-09-16T05:38:12.245Z,99.47
2022-09-16T05:39:28.759Z,99.83
2022-09-16T05:40:27.656Z,100.00
2022-09-16T05:41:24.626Z,98.79
2022-09-16T05:42:21.962Z,97.02
2022-09-16T05:43:18.638Z,95.42
2022-09-16T05:44:15.686Z,95.05
2022-09-16T05:45:12.502Z,94.53
2022-09-16T05:46:20.946Z,94.24
2022-09-16T05:47:17.770Z,94.33
2022-09-16T05:48:14.487Z,95.63
2022-09-16T05:49:11.331Z,95.79
2022-09-16T05:50:08.395Z,93.69
2022-09-16T05:51:06.924Z,93.53
2022-09-16T05:52:03.784Z,94.13
2022-09-16T05:53:00.530Z,94.30
2022-09-16T05:53:59.716Z,94.24
2022-09-16T05:54:56.426Z,95.39
2022-09-16T05:56:20.792Z,96.28
2022-09-16T05:57:17.755Z,96.47
2022-09-16T05:58:14.540Z,95.86
2022-09-16T05:59:12.965Z,95.45
2022-09-16T06:00:10.517Z,94.19
2022-09-16T06:01:13.138Z,94.31
2022-09-16T06:02:12.722Z,93.43
2022-09-16T06:03:11.027Z,92.27
2022-09-16T06:04:11.972Z,88.47
2022-09-16T06:05:09.572Z,85.12
2022-09-16T06:06:32.223Z,83.17
2022-09-16T06:07:28.859Z,82.48
2022-09-16T06:08:25.539Z,80.62
2022-09-16T06:09:24.930Z,79.27
2022-09-16T06:10:21.598Z,82.99
2022-09-16T06:11:18.683Z,84.70
2022-09-16T06:12:15.458Z,86.06
2022-09-16T06:13:12.188Z,84.05
2022-09-16T06:14:10.594Z,84.15
2022-09-16T06:15:07.861Z,83.92
2022-09-16T06:16:06.679Z,80.12
2022-09-16T06:17:03.867Z,75.30
2022-09-16T06:18:05.587Z,71.95
2022-09-16T06:19:07.103Z,70.80
2022-09-16T06:20:04.052Z,70.91
2022-09-16T06:21:06.127Z,71.76
2022-09-16T06:22:02.839Z,73.27
2022-09-16T06:22:59.623Z,74.27
2022-09-16T06:23:57.466Z,73.79
2022-09-16T06:24:54.228Z,72.75
2022-09-16T06:26:01.277Z,73.65
2022-09-16T06:26:57.942Z,74.56
2022-09-16T06:27:54.636Z,75.00
2022-09-16T06:28:52.379Z,75.72
2022-09-16T06:29:49.058Z,73.81
2022-09-16T06:30:45.820Z,73.94
2022-09-16T06:31:42.716Z,72.91
2022-09-16T06:32:39.470Z,73.26
2022-09-16T06:33:36.832Z,72.37
2022-09-16T06:34:33.569Z,71.99
2022-09-16T06:35:30.552Z,70.44
2022-09-16T06:36:30.446Z,70.29
2022-09-16T06:37:27.122Z,70.50
2022-09-16T06:38:24.942Z,71.01
2022-09-16T06:39:23.735Z,70.11
2022-09-16T06:40:20.490Z,69.38
2022-09-16T06:41:19.393Z,68.50
2022-09-16T06:42:16.070Z,67.86
2022-09-16T06:43:12.727Z,67.75
2022-09-16T06:44:09.622Z,67.68
2022-09-16T06:45:06.674Z,69.04
2022-09-16T06:46:13.716Z,71.42
2022-09-16T06:47:10.709Z,68.65
2022-09-16T06:48:07.405Z,66.37
2022-09-16T06:49:06.133Z,66.44
2022-09-16T06:50:05.216Z,67.55
2022-09-16T06:51:05.621Z,69.68
2022-09-16T06:52:02.496Z,68.89
2022-09-16T06:52:59.161Z,67.28
2022-09-16T06:54:04.339Z,67.41
2022-09-16T06:55:01.327Z,64.93
2022-09-16T06:56:03.811Z,63.92
2022-09-16T06:57:00.522Z,63.56
2022-09-16T06:57:57.234Z,63.05
2022-09-16T06:58:55.635Z,64.02
2022-09-16T06:59:53.249Z,62.90
2022-09-16T07:00:51.086Z,63.87
2022-09-16T07:01:47.823Z,62.99
2022-09-16T07:02:44.613Z,62.56
2022-09-16T07:03:46.350Z,62.22
2022-09-16T07:04:43.227Z,61.48
2022-09-16T07:05:40.283Z,64.31
2022-09-16T07:07:07.489Z,62.94
2022-09-16T07:07:54.512Z,61.94
2022-09-16T07:08:53.828Z,61.08
2022-09-16T07:09:50.629Z,60.23
2022-09-16T07:10:56.817Z,59.94
2022-09-16T07:11:53.552Z,60.89
2022-09-16T07:12:50.288Z,60.64
2022-09-16T07:13:48.962Z,59.79
2022-09-16T07:14:45.667Z,60.32
2022-09-16T07:16:02.404Z,59.58
2022-09-16T07:16:59.155Z,58.97
2022-09-16T07:17:55.919Z,57.87
2022-09-16T07:19:00.719Z,57.81
2022-09-16T07:19:57.937Z,57.74
2022-09-16T07:21:04.618Z,56.90
2022-09-16T07:22:01.338Z,57.85
2022-09-16T07:22:58.712Z,57.83
2022-09-16T07:23:58.088Z,57.47
2022-09-16T07:24:54.769Z,57.13
2022-09-16T07:26:03.430Z,55.73
2022-09-16T07:27:00.134Z,55.42
2022-09-16T07:27:57.009Z,56.40
2022-09-16T07:28:55.191Z,56.12
2022-09-16T07:29:53.714Z,56.75
2022-09-16T07:30:50.498Z,57.43
2022-09-16T07:31:48.082Z,57.34
2022-09-16T07:32:45.002Z,57.92
2022-09-16T07:33:45.096Z,56.32
2022-09-16T07:34:41.772Z,56.07
2022-09-16T07:35:38.543Z,55.55
2022-09-16T07:36:39.272Z,56.13
2022-09-16T07:37:40.577Z,55.89
2022-09-16T07:38:39.566Z,55.78
2022-09-16T07:39:36.330Z,55.76
2022-09-16T07:40:34.366Z,56.08
2022-09-16T07:41:35.659Z,55.34
2022-09-16T07:42:32.567Z,55.63
2022-09-16T07:43:29.244Z,56.13
2022-09-16T07:44:26.203Z,55.49
2022-09-16T07:45:24.547Z,55.91
2022-09-16T07:46:21.884Z,56.70
2022-09-16T07:47:22.090Z,56.34
2022-09-16T07:48:19.099Z,56.67
2022-09-16T07:49:17.092Z,56.30
2022-09-16T07:50:13.797Z,56.12
2022-09-16T07:51:13.145Z,56.22
2022-09-16T07:52:09.886Z,55.01
2022-09-16T07:53:06.650Z,54.49
2022-09-16T07:54:06.740Z,54.72
2022-09-16T07:55:03.558Z,55.79
2022-09-16T07:56:20.853Z,54.53
2022-09-16T07:57:18.421Z,54.43
2022-09-16T07:58:15.105Z,55.75
2022-09-16T07:59:17.706Z,54.67
2022-09-16T08:00:16.529Z,54.63
2022-09-16T08:01:15.302Z,55.08
2022-09-16T08:02:12.258Z,53.90
2022-09-16T08:03:10.090Z,54.52
2022-09-16T08:04:07.072Z,53.94
2022-09-16T08:05:04.137Z,54.83
2022-09-16T08:06:10.539Z,54.79
2022-09-16T08:07:07.538Z,54.79
2022-09-16T08:08:04.314Z,53.66
2022-09-16T08:09:10.524Z,53.40
2022-09-16T08:10:19.095Z,53.96
2022-09-16T08:11:15.902Z,53.46
2022-09-16T08:12:14.616Z,53.83
2022-09-16T08:13:11.401Z,53.07
2022-09-16T08:14:08.110Z,52.82
2022-09-16T08:15:05.383Z,53.30
2022-09-16T08:16:08.123Z,52.97
2022-09-16T08:17:05.022Z,52.53
2022-09-16T08:18:02.227Z,52.91
2022-09-16T08:18:59.291Z,53.25
2022-09-16T08:19:55.978Z,52.27
2022-09-16T08:20:52.667Z,51.68
2022-09-16T08:21:49.788Z,52.63
2022-09-16T08:22:46.479Z,51.77
2022-09-16T08:23:43.901Z,52.20
2022-09-16T08:24:40.596Z,52.27
2022-09-16T08:25:37.278Z,52.81
2022-09-16T08:26:33.961Z,53.00
2022-09-16T08:27:30.653Z,52.50
2022-09-16T08:28:39.785Z,51.94
2022-09-16T08:29:45.484Z,52.05
2022-09-16T08:30:42.837Z,52.25
2022-09-16T08:31:39.706Z,51.95
2022-09-16T08:32:36.930Z,51.62
2022-09-16T08:33:34.450Z,51.97
2022-09-16T08:34:31.221Z,52.31
2022-09-16T08:35:27.940Z,53.48
2022-09-16T08:36:26.147Z,52.24
2022-09-16T08:37:23.397Z,51.55
2022-09-16T08:38:20.069Z,51.62
2022-09-16T08:39:16.790Z,51.39
2022-09-16T08:41:26.226Z,52.21
2022-09-16T08:42:31.011Z,51.99
2022-09-16T08:44:01.889Z,51.83
2022-09-16T08:45:31.047Z,51.69
2022-09-16T08:46:39.760Z,52.47
2022-09-16T08:48:04.207Z,52.72
2022-09-16T08:49:20.808Z,51.68
2022-09-16T08:50:31.602Z,52.20
2022-09-16T08:51:28.854Z,51.81
2022-09-16T08:52:35.837Z,52.42
2022-09-16T08:53:52.884Z,54.57
2022-09-16T08:54:56.302Z,55.17
2022-09-16T08:55:54.601Z,54.75
2022-09-16T08:56:55.023Z,54.25
2022-09-16T08:58:16.591Z,53.99
2022-09-16T08:59:21.559Z,53.93
2022-09-16T09:00:20.133Z,54.54
2022-09-16T09:01:45.261Z,53.54
2022-09-16T09:02:58.239Z,53.70
2022-09-16T09:03:55.252Z,53.49
2022-09-16T09:04:52.099Z,53.34
2022-09-16T09:05:55.443Z,52.88
2022-09-16T09:07:17.043Z,53.59
2022-09-16T09:08:46.863Z,54.08
2022-09-16T09:09:52.646Z,54.24
2022-09-16T09:11:00.832Z,54.08
2022-09-16T09:12:41.914Z,54.89
2022-09-16T09:13:41.920Z,54.18
2022-09-16T09:15:07.126Z,53.88
2022-09-16T09:16:25.777Z,54.42
2022-09-16T09:17:51.447Z,54.54
2022-09-16T09:19:09.849Z,54.66
2022-09-16T09:20:35.499Z,53.06
2022-09-16T09:21:42.948Z,52.90
2022-09-16T09:23:18.091Z,52.43
2022-09-16T09:24:45.932Z,52.70
2022-09-16T09:25:51.658Z,51.60
2022-09-16T09:27:28.749Z,52.23
2022-09-16T09:28:31.249Z,51.87
2022-09-16T09:29:55.245Z,52.79
2022-09-16T09:31:14.595Z,53.11
2022-09-16T09:32:14.131Z,51.93
2022-09-16T09:33:47.534Z,51.64
2022-09-16T09:35:08.723Z,52.70
2022-09-16T09:36:23.893Z,51.97
2022-09-16T09:37:32.751Z,51.95
2022-09-16T09:39:01.578Z,51.77
2022-09-16T09:40:11.195Z,51.92
2022-09-16T09:41:29.347Z,52.17
2022-09-16T09:42:34.590Z,51.92
2022-09-16T09:44:06.519Z,52.78
2022-09-16T09:45:18.434Z,52.87
2022-09-16T09:46:21.040Z,52.42
2022-09-16T09:47:26.239Z,53.01
2022-09-16T09:48:27.458Z,52.72
2022-09-16T09:49:46.659Z,53.93
2022-09-16T09:50:48.912Z,53.83
2022-09-16T09:52:10.902Z,54.39
2022-09-16T09:53:36.705Z,54.33
2022-09-16T09:54:38.598Z,55.14
2022-09-16T09:55:35.779Z,55.34
2022-09-16T09:56:39.956Z,55.83
2022-09-16T09:57:47.010Z,55.92
2022-09-16T09:59:04.703Z,56.80
2022-09-16T10:00:10.361Z,59.72
2022-09-16T10:01:09.037Z,60.60
2022-09-16T10:02:17.106Z,61.81
2022-09-16T10:03:17.683Z,61.97
2022-09-16T10:04:15.964Z,62.73
2022-09-16T10:05:23.094Z,65.22
2022-09-16T10:06:30.126Z,67.85
2022-09-16T10:07:28.637Z,65.99
2022-09-16T10:08:36.219Z,67.67
2022-09-16T10:09:36.001Z,71.16
2022-09-16T10:10:34.772Z,70.27
2022-09-16T10:11:32.622Z,73.12
2022-09-16T10:12:35.092Z,75.03
2022-09-16T10:13:31.880Z,77.43
2022-09-16T10:14:38.010Z,83.08
2022-09-16T10:15:34.839Z,86.75
2022-09-16T10:16:37.490Z,89.96
2022-09-16T10:17:34.625Z,92.44
2022-09-16T10:18:32.477Z,92.48
2022-09-16T10:19:40.897Z,96.20
2022-09-16T10:20:40.648Z,98.52
2022-09-16T10:21:42.129Z,96.39
2022-09-16T10:22:38.822Z,100.00
2022-09-16T10:23:36.572Z,100.00
2022-09-16T10:24:44.608Z,100.00
2022-09-16T10:25:43.201Z,100.00
2022-09-16T10:26:41.162Z,100.00
2022-09-16T10:27:39.044Z,100.00
2022-09-16T10:28:35.798Z,100.00
2022-09-16T10:29:32.451Z,100.00
2022-09-16T10:30:54.625Z,100.00
2022-09-16T10:31:51.959Z,100.00
2022-09-16T10:33:03.663Z,100.00
2022-09-16T10:34:02.801Z,100.00
2022-09-16T10:34:59.539Z,100.00
2022-09-16T10:36:00.910Z,100.00
2022-09-16T10:37:03.406Z,100.00
2022-09-16T10:38:19.193Z,100.00
2022-09-16T10:39:25.722Z,100.00
2022-09-16T10:40:24.143Z,100.00
2022-09-16T10:41:25.427Z,100.00
2022-09-16T10:42:25.453Z,100.00
2022-09-16T10:43:25.082Z,100.00
2022-09-16T10:44:34.549Z,100.00
2022-09-16T10:45:37.384Z,100.00
2022-09-16T10:46:34.495Z,100.00
2022-09-16T10:47:36.258Z,100.00
2022-09-16T10:48:36.407Z,100.00
2022-09-16T10:49:43.918Z,100.00
2022-09-16T10:50:57.413Z,100.00
2022-09-16T10:51:54.320Z,100.00
2022-09-16T10:52:51.453Z,100.00
2022-09-16T10:53:54.070Z,100.00
2022-09-16T10:54:50.798Z,100.00
2022-09-16T10:55:58.119Z,100.00
2022-09-16T10:56:55.342Z,100.00
2022-09-16T10:57:53.485Z,100.00
2022-09-16T10:59:02.305Z,100.00
2022-09-16T11:00:25.175Z,100.00
2022-09-16T11:01:40.756Z,100.00
2022-09-16T11:03:15.730Z,100.00
2022-09-16T11:04:31.073Z,100.00
2022-09-16T11:05:41.107Z,100.00
2022-09-16T11:07:05.706Z,100.00
2022-09-16T11:08:22.366Z,100.00
2022-09-16T11:09:31.338Z,100.00
2022-09-16T11:11:15.482Z,100.00
2022-09-16T11:12:23.835Z,100.00
2022-09-16T11:13:32.524Z,100.00
2022-09-16T11:14:53.652Z,100.00
2022-09-16T11:16:09.107Z,100.00
2022-09-16T11:17:30.407Z,100.00
2022-09-16T11:18:36.054Z,100.00
2022-09-16T11:19:48.543Z,100.00
2022-09-16T11:21:03.588Z,100.00
2022-09-16T11:22:31.952Z,100.00
2022-09-16T11:23:42.308Z,100.00
2022-09-16T11:25:08.782Z,100.00
2022-09-16T11:26:14.049Z,100.00
2022-09-16T11:27:22.726Z,100.00
2022-09-16T11:29:06.049Z,100.00
2022-09-16T11:30:11.662Z,100.00
2022-09-16T11:31:29.929Z,100.00
2022-09-16T11:32:35.253Z,100.00
2022-09-16T11:34:06.842Z,100.00
2022-09-16T11:35:25.120Z,100.00
2022-09-16T11:36:48.533Z,100.00
2022-09-16T11:38:13.834Z,100.00
2022-09-16T11:39:38.298Z,100.00
2022-09-16T11:40:51.965Z,100.00
2022-09-16T11:42:01.003Z,100.00
2022-09-16T11:43:16.440Z,100.00
2022-09-16T11:44:40.249Z,100.00
2022-09-16T11:45:49.555Z,100.00
2022-09-16T11:47:23.868Z,100.00
2022-09-16T11:48:44.105Z,100.00
2022-09-16T11:49:59.327Z,100.00
2022-09-16T11:50:55.991Z,100.00
2022-09-16T11:52:14.420Z,100.00
2022-09-16T11:53:12.503Z,100.00
2022-09-16T11:54:28.557Z,100.00
2022-09-16T11:56:02.572Z,100.00
2022-09-16T11:57:14.540Z,100.00
2022-09-16T11:58:27.660Z,100.00
2022-09-16T11:59:30.252Z,100.00
2022-09-16T12:00:33.763Z,100.00
2022-09-16T12:01:44.853Z,100.00
2022-09-16T12:02:47.488Z,100.00
2022-09-16T12:03:47.708Z,100.00
2022-09-16T12:04:58.690Z,100.00
2022-09-16T12:06:06.435Z,100.00
2022-09-16T12:07:03.765Z,100.00
2022-09-16T12:08:28.158Z,100.00
2022-09-16T12:09:35.137Z,100.00
2022-09-16T12:10:53.286Z,100.00
2022-09-16T12:12:04.148Z,100.00
2022-09-16T12:13:10.622Z,100.00
2022-09-16T12:14:24.849Z,100.00
2022-09-16T12:15:29.745Z,100.00
2022-09-16T12:16:43.711Z,100.00
2022-09-16T12:17:48.463Z,100.00
2022-09-16T12:18:52.387Z,100.00
2022-09-16T12:20:36.822Z,100.00
2022-09-16T12:21:43.042Z,100.00
2022-09-16T12:22:50.251Z,100.00
2022-09-16T12:23:59.949Z,100.00
2022-09-16T12:25:22.958Z,100.00
2022-09-16T12:26:47.540Z,100.00
2022-09-16T12:27:51.006Z,100.00
2022-09-16T12:29:02.472Z,100.00
2022-09-16T12:30:21.195Z,100.00
2022-09-16T12:31:28.075Z,100.00
2022-09-16T12:33:00.132Z,100.00
2022-09-16T12:34:26.559Z,100.00
2022-09-16T12:35:41.597Z,100.00
2022-09-16T12:36:44.220Z,100.00
2022-09-16T12:37:50.987Z,100.00
2022-09-16T12:38:47.837Z,100.00
2022-09-16T12:39:45.345Z,100.00
2022-09-16T12:41:10.882Z,100.00
2022-09-16T12:42:56.511Z,100.00
2022-09-16T12:44:33.447Z,100.00
2022-09-16T12:45:59.609Z,100.00
2022-09-16T12:47:02.603Z,100.00
2022-09-16T12:48:23.439Z,100.00
2022-09-16T12:49:41.771Z,100.00
2022-09-16T12:51:00.185Z,100.00
2022-09-16T12:52:19.103Z,100.00
2022-09-16T12:53:49.292Z,100.00
2022-09-16T12:55:34.995Z,100.00
2022-09-16T12:56:58.738Z,100.00
2022-09-16T12:58:26.483Z,100.00
2022-09-16T12:59:38.363Z,100.00
2022-09-16T13:01:07.703Z,100.00
2022-09-16T13:02:22.649Z,100.00
2022-09-16T13:03:28.793Z,100.00
2022-09-16T13:04:35.301Z,100.00
2022-09-16T13:05:38.301Z,100.00
2022-09-16T13:06:45.227Z,100.00
2022-09-16T13:07:42.220Z,100.00
2022-09-16T13:08:39.022Z,100.00
2022-09-16T13:09:39.597Z,100.00
2022-09-16T13:10:54.576Z,100.00
2022-09-16T13:13:27.878Z,100.00
2022-09-16T13:14:30.226Z,100.00
2022-09-16T13:15:35.585Z,100.00
2022-09-16T13:16:35.688Z,100.00
2022-09-16T13:17:38.770Z,100.00
2022-09-16T13:18:50.370Z,100.00
2022-09-16T13:19:54.023Z,100.00
2022-09-16T13:20:58.652Z,100.00
2022-09-16T13:22:02.793Z,100.00
2022-09-16T13:23:19.325Z,100.00
2022-09-16T13:24:36.992Z,100.00
2022-09-16T13:26:00.406Z,100.00
2022-09-16T13:26:57.635Z,100.00
2022-09-16T13:28:28.263Z,100.00
2022-09-16T13:29:27.919Z,100.00
2022-09-16T13:30:34.997Z,100.00
2022-09-16T13:31:34.186Z,100.00
2022-09-16T13:32:38.529Z,100.00
2022-09-16T13:33:35.287Z,100.00
2022-09-16T13:34:32.068Z,100.00
2022-09-16T13:35:32.566Z,100.00
2022-09-16T13:36:33.149Z,100.00
2022-09-16T13:37:29.780Z,100.00
2022-09-16T13:38:38.759Z,100.00
2022-09-16T13:39:35.519Z,100.00
2022-09-16T13:40:32.488Z,100.00
2022-09-16T13:41:42.947Z,100.00
2022-09-16T13:42:39.765Z,100.00
2022-09-16T13:43:42.338Z,100.00
2022-09-16T13:44:39.340Z,100.00
2022-09-16T13:45:39.958Z,100.00
2022-09-16T13:46:38.317Z,100.00
2022-09-16T13:47:40.327Z,100.00
2022-09-16T13:48:55.004Z,100.00
2022-09-16T13:50:13.219Z,100.00
2022-09-16T13:51:17.427Z,100.00
2022-09-16T13:52:21.991Z,100.00